createdAt,value
2023-05-06T00:00:55.880Z,28.33
2023-05-06T00:01:55.915Z,28.29
2023-05-06T00:02:55.946Z,28.26
2023-05-06T00:03:56.182Z,28.36
2023-05-06T00:04:56.091Z,28.31
2023-05-06T00:05:55.986Z,28.32
2023-05-06T00:06:55.953Z,28.33
2023-05-06T00:07:55.995Z,28.28
2023-05-06T00:08:55.996Z,28.29
2023-05-06T00:09:55.970Z,28.31
2023-05-06T00:10:55.976Z,28.40
2023-05-06T00:11:55.970Z,28.36
2023-05-06T00:12:56.068Z,28.37
2023-05-06T00:13:56.032Z,28.31
2023-05-06T00:14:55.994Z,28.33
2023-05-06T00:15:56.018Z,28.39
2023-05-06T00:16:56.044Z,28.33
2023-05-06T00:17:56.170Z,28.39
2023-05-06T00:18:56.080Z,28.36
2023-05-06T00:19:56.032Z,28.36
2023-05-06T00:20:56.103Z,28.39
2023-05-06T00:21:56.138Z,28.39
2023-05-06T00:22:56.055Z,28.39
2023-05-06T00:23:56.090Z,28.36
2023-05-06T00:24:56.062Z,28.37
2023-05-06T00:25:56.117Z,28.33
2023-05-06T00:26:56.078Z,28.33
2023-05-06T00:27:56.133Z,28.38
2023-05-06T00:28:56.110Z,28.36
2023-05-06T00:29:56.083Z,28.41
2023-05-06T00:30:56.092Z,28.47
2023-05-06T00:31:56.267Z,28.40
2023-05-06T00:32:56.170Z,28.41
2023-05-06T00:33:56.118Z,28.43
2023-05-06T00:34:56.104Z,28.48
2023-05-06T00:35:56.114Z,28.44
2023-05-06T00:36:56.139Z,28.40
2023-05-06T00:37:56.100Z,28.44
2023-05-06T00:38:56.116Z,28.44
2023-05-06T00:39:56.165Z,28.46
2023-05-06T00:40:56.169Z,28.48
2023-05-06T00:41:56.140Z,28.46
2023-05-06T00:42:56.125Z,28.43
2023-05-06T00:43:56.137Z,28.48
2023-05-06T00:44:56.186Z,28.48
2023-05-06T00:45:56.263Z,28.43
2023-05-06T00:46:56.229Z,28.51
2023-05-06T00:47:56.205Z,28.48
2023-05-06T00:48:56.177Z,28.50
2023-05-06T00:49:56.293Z,28.52
2023-05-06T00:50:56.188Z,28.50
2023-05-06T00:51:56.162Z,28.47
2023-05-06T00:52:56.194Z,28.50
2023-05-06T00:53:56.156Z,28.52
2023-05-06T00:54:56.162Z,28.50
2023-05-06T00:55:56.244Z,28.55
2023-05-06T00:56:56.292Z,28.52
2023-05-06T00:57:56.230Z,28.51
2023-05-06T00:58:56.234Z,28.52
2023-05-06T00:59:56.247Z,28.57
2023-05-06T01:00:56.254Z,28.57
2023-05-06T01:01:56.361Z,28.54
2023-05-06T01:02:56.394Z,28.58
2023-05-06T01:03:56.537Z,28.58
2023-05-06T01:04:56.364Z,28.55
2023-05-06T01:05:56.375Z,28.52
2023-05-06T01:06:56.505Z,28.57
2023-05-06T01:07:56.359Z,28.57
2023-05-06T01:08:56.378Z,28.59
2023-05-06T01:09:56.372Z,28.55
2023-05-06T01:10:56.435Z,28.62
2023-05-06T01:11:56.361Z,28.59
2023-05-06T01:12:56.374Z,28.61
2023-05-06T01:13:56.364Z,28.58
2023-05-06T01:14:56.386Z,28.65
2023-05-06T01:15:56.365Z,28.63
2023-05-06T01:16:56.395Z,28.66
2023-05-06T01:17:56.432Z,28.63
2023-05-06T01:18:56.347Z,28.63
2023-05-06T01:19:56.353Z,28.66
2023-05-06T01:20:56.406Z,28.65
2023-05-06T01:21:56.580Z,28.62
2023-05-06T01:22:56.620Z,28.67
2023-05-06T01:23:56.752Z,28.69
2023-05-06T01:24:56.726Z,28.63
2023-05-06T01:25:56.684Z,28.68
2023-05-06T01:26:56.689Z,28.65
2023-05-06T01:27:56.681Z,28.68
2023-05-06T01:28:56.719Z,28.71
2023-05-06T01:29:56.685Z,28.73
2023-05-06T01:30:56.726Z,28.66
2023-05-06T01:31:56.728Z,28.65
2023-05-06T01:32:56.783Z,28.69
2023-05-06T01:33:56.715Z,28.65
2023-05-06T01:34:56.801Z,28.72
2023-05-06T01:35:56.761Z,28.72
2023-05-06T01:36:56.748Z,28.73
2023-05-06T01:37:56.833Z,28.68
2023-05-06T01:38:56.827Z,28.69
2023-05-06T01:39:56.759Z,28.76
2023-05-06T01:40:56.846Z,28.74
2023-05-06T01:41:56.844Z,28.76
2023-05-06T01:42:56.902Z,28.68
2023-05-06T01:43:56.857Z,28.74
2023-05-06T01:44:56.905Z,28.76
2023-05-06T01:45:56.907Z,28.78
2023-05-06T01:46:56.948Z,28.77
2023-05-06T01:47:57.086Z,28.76
2023-05-06T01:48:56.957Z,28.70
2023-05-06T01:49:56.961Z,28.73
2023-05-06T01:50:56.980Z,28.74
2023-05-06T01:51:57.047Z,28.77
2023-05-06T01:52:57.185Z,28.76
2023-05-06T01:53:57.235Z,28.68
2023-05-06T01:54:57.271Z,28.76
2023-05-06T01:55:57.140Z,28.77
2023-05-06T01:56:57.169Z,28.74
2023-05-06T01:57:57.223Z,28.70
2023-05-06T01:58:59.220Z,28.72
2023-05-06T01:59:57.189Z,28.74
2023-05-06T02:00:57.190Z,28.78
2023-05-06T02:01:57.357Z,28.73
2023-05-06T02:02:57.416Z,28.73
2023-05-06T02:03:57.527Z,28.72
2023-05-06T02:04:57.301Z,28.74
2023-05-06T02:05:57.323Z,28.78
2023-05-06T02:06:57.337Z,28.80
2023-05-06T02:07:57.345Z,28.78
2023-05-06T02:08:57.331Z,28.75
2023-05-06T02:09:57.397Z,28.75
2023-05-06T02:10:57.354Z,28.73
2023-05-06T02:11:57.385Z,28.81
2023-05-06T02:12:57.445Z,28.75
2023-05-06T02:13:57.428Z,28.83
2023-05-06T02:14:57.423Z,28.83
2023-05-06T02:15:57.494Z,28.77
2023-05-06T02:16:57.446Z,28.77
2023-05-06T02:17:57.501Z,28.77
2023-05-06T02:18:57.465Z,28.78
2023-05-06T02:19:57.444Z,28.75
2023-05-06T02:20:57.467Z,28.81
2023-05-06T02:21:57.460Z,28.83
2023-05-06T02:22:57.627Z,28.78
2023-05-06T02:23:57.601Z,28.79
2023-05-06T02:24:57.570Z,28.83
2023-05-06T02:25:57.657Z,28.81
2023-05-06T02:26:57.598Z,28.81
2023-05-06T02:27:57.629Z,28.77
2023-05-06T02:28:57.718Z,28.78
2023-05-06T02:29:57.677Z,28.84
2023-05-06T02:30:57.727Z,28.81
2023-05-06T02:31:57.791Z,28.78
2023-05-06T02:32:57.819Z,28.83
2023-05-06T02:33:57.780Z,28.81
2023-05-06T02:34:57.780Z,28.83
2023-05-06T02:35:57.926Z,28.81
2023-05-06T02:36:57.879Z,28.85
2023-05-06T02:37:57.902Z,28.85
2023-05-06T02:38:57.897Z,28.81
2023-05-06T02:39:57.903Z,28.78
2023-05-06T02:40:57.940Z,28.79
2023-05-06T02:41:58.039Z,28.84
2023-05-06T02:42:57.971Z,28.82
2023-05-06T02:43:57.937Z,28.84
2023-05-06T02:44:57.944Z,28.85
2023-05-06T02:45:57.978Z,28.85
2023-05-06T02:46:57.980Z,28.83
2023-05-06T02:47:58.156Z,28.85
2023-05-06T02:48:58.191Z,28.85
2023-05-06T02:49:58.277Z,28.88
2023-05-06T02:50:58.259Z,28.89
2023-05-06T02:51:58.278Z,28.88
2023-05-06T02:52:58.268Z,28.88
2023-05-06T02:53:58.311Z,28.90
2023-05-06T02:54:58.311Z,28.89
2023-05-06T02:55:58.344Z,28.88
2023-05-06T02:56:58.341Z,28.89
2023-05-06T02:57:58.423Z,28.86
2023-05-06T02:58:58.397Z,28.88
2023-05-06T02:59:58.397Z,28.93
2023-05-06T03:00:58.421Z,28.90
2023-05-06T03:01:58.536Z,28.90
2023-05-06T03:02:58.533Z,28.93
2023-05-06T03:03:58.515Z,28.93
2023-05-06T03:04:58.469Z,28.92
2023-05-06T03:05:58.506Z,28.90
2023-05-06T03:06:58.508Z,28.94
2023-05-06T03:07:58.590Z,28.92
2023-05-06T03:08:58.588Z,28.96
2023-05-06T03:09:58.632Z,28.93
2023-05-06T03:10:58.636Z,28.92
2023-05-06T03:11:58.649Z,28.90
2023-05-06T03:12:58.673Z,28.93
2023-05-06T03:13:58.798Z,28.96
2023-05-06T03:14:58.760Z,28.96
2023-05-06T03:15:58.776Z,28.96
2023-05-06T03:16:58.868Z,28.92
2023-05-06T03:17:58.823Z,29.00
2023-05-06T03:18:58.838Z,29.01
2023-05-06T03:19:58.910Z,29.01
2023-05-06T03:20:58.953Z,28.97
2023-05-06T03:21:58.893Z,28.98
2023-05-06T03:22:58.920Z,28.99
2023-05-06T03:23:58.993Z,29.02
2023-05-06T03:24:58.978Z,29.00
2023-05-06T03:25:59.036Z,29.02
2023-05-06T03:26:59.098Z,28.99
2023-05-06T03:27:59.112Z,28.98
2023-05-06T03:28:59.144Z,29.00
2023-05-06T03:29:59.276Z,28.98
2023-05-06T03:30:59.137Z,29.01
2023-05-06T03:31:59.252Z,29.06
2023-05-06T03:32:59.183Z,28.97
2023-05-06T03:33:59.141Z,29.02
2023-05-06T03:34:59.177Z,29.01
2023-05-06T03:35:59.199Z,29.01
2023-05-06T03:36:59.230Z,29.02
2023-05-06T03:37:59.230Z,28.96
2023-05-06T03:38:59.288Z,28.94
2023-05-06T03:39:59.247Z,29.01
2023-05-06T03:40:59.258Z,28.99
2023-05-06T03:41:59.327Z,29.02
2023-05-06T03:42:59.321Z,29.01
2023-05-06T03:43:59.320Z,29.02
2023-05-06T03:44:59.385Z,28.98
2023-05-06T03:45:59.498Z,29.00
2023-05-06T03:46:59.449Z,29.01
2023-05-06T03:47:59.486Z,29.04
2023-05-06T03:48:59.456Z,29.04
2023-05-06T03:49:59.458Z,28.97
2023-05-06T03:50:59.477Z,29.00
2023-05-06T03:51:59.495Z,29.01
2023-05-06T03:52:59.540Z,29.02
2023-05-06T03:53:59.579Z,29.02
2023-05-06T03:54:59.553Z,28.98
2023-05-06T03:55:59.598Z,29.06
2023-05-06T03:56:59.720Z,29.04
2023-05-06T03:57:59.679Z,29.05
2023-05-06T03:58:59.725Z,29.02
2023-05-06T03:59:59.696Z,29.04
2023-05-06T04:00:59.728Z,29.02
2023-05-06T04:01:59.781Z,29.05
2023-05-06T04:02:59.814Z,29.06
2023-05-06T04:03:59.837Z,28.99
2023-05-06T04:04:59.828Z,29.02
2023-05-06T04:05:59.833Z,29.05
2023-05-06T04:06:59.889Z,29.04
2023-05-06T04:07:59.945Z,29.05
2023-05-06T04:08:59.971Z,29.05
2023-05-06T04:09:59.975Z,29.09
2023-05-06T04:10:59.973Z,29.09
2023-05-06T04:11:59.974Z,29.12
2023-05-06T04:13:00.140Z,29.05
2023-05-06T04:14:00.129Z,29.04
2023-05-06T04:15:00.083Z,29.06
2023-05-06T04:16:00.276Z,29.05
2023-05-06T04:17:00.121Z,29.09
2023-05-06T04:18:00.266Z,29.09
2023-05-06T04:19:00.128Z,29.11
2023-05-06T04:20:00.110Z,29.09
2023-05-06T04:21:00.149Z,29.12
2023-05-06T04:22:00.181Z,29.16
2023-05-06T04:23:00.147Z,29.12
2023-05-06T04:24:00.216Z,29.11
2023-05-06T04:25:01.003Z,29.16
2023-05-06T04:26:00.166Z,29.09
2023-05-06T04:27:00.217Z,29.05
2023-05-06T04:28:00.234Z,29.09
2023-05-06T04:29:00.233Z,29.13
2023-05-06T04:30:00.264Z,29.11
2023-05-06T04:31:00.306Z,29.13
2023-05-06T04:32:00.465Z,29.17
2023-05-06T04:33:00.347Z,29.09
2023-05-06T04:34:00.313Z,29.15
2023-05-06T04:35:00.337Z,29.17
2023-05-06T04:36:00.368Z,29.16
2023-05-06T04:37:00.388Z,29.19
2023-05-06T04:38:00.400Z,29.19
2023-05-06T04:39:00.418Z,29.17
2023-05-06T04:40:00.437Z,29.13
2023-05-06T04:41:00.429Z,29.12
2023-05-06T04:42:00.430Z,29.17
2023-05-06T04:43:00.432Z,29.19
2023-05-06T04:44:00.450Z,29.23
2023-05-06T04:45:00.438Z,29.19
2023-05-06T04:46:00.527Z,29.19
2023-05-06T04:47:00.577Z,29.22
2023-05-06T04:48:00.504Z,29.15
2023-05-06T04:49:00.489Z,29.19
2023-05-06T04:50:00.576Z,29.19
2023-05-06T04:51:00.497Z,29.23
2023-05-06T04:52:00.580Z,29.20
2023-05-06T04:53:00.547Z,29.24
2023-05-06T04:54:00.585Z,29.19
2023-05-06T04:55:00.550Z,29.23
2023-05-06T04:56:00.592Z,29.24
2023-05-06T04:57:00.704Z,29.24
2023-05-06T04:58:00.605Z,29.26
2023-05-06T04:59:00.571Z,29.20
2023-05-06T05:00:00.864Z,29.26
2023-05-06T05:01:00.708Z,29.23
2023-05-06T05:02:00.691Z,29.28
2023-05-06T05:03:01.467Z,29.28
2023-05-06T05:04:00.689Z,29.27
2023-05-06T05:05:00.702Z,29.27
2023-05-06T05:06:00.751Z,29.30
2023-05-06T05:07:00.721Z,29.28
2023-05-06T05:08:00.709Z,29.24
2023-05-06T05:09:00.726Z,29.33
2023-05-06T05:10:00.738Z,29.26
2023-05-06T05:11:00.798Z,29.24
2023-05-06T05:12:00.808Z,29.30
2023-05-06T05:13:00.811Z,29.30
2023-05-06T05:14:02.161Z,29.31
2023-05-06T05:15:00.830Z,29.27
2023-05-06T05:16:00.874Z,29.26
2023-05-06T05:17:00.846Z,29.28
2023-05-06T05:18:00.825Z,29.30
2023-05-06T05:19:03.299Z,29.34
2023-05-06T05:20:00.821Z,29.23
2023-05-06T05:21:00.859Z,29.28
2023-05-06T05:22:00.808Z,29.28
2023-05-06T05:23:00.801Z,29.32
2023-05-06T05:24:00.830Z,29.26
2023-05-06T05:25:00.782Z,29.36
2023-05-06T05:26:00.776Z,29.27
2023-05-06T05:27:00.799Z,29.31
2023-05-06T05:28:00.776Z,29.30
2023-05-06T05:29:00.866Z,29.27
2023-05-06T05:30:00.758Z,29.27
2023-05-06T05:31:00.791Z,29.32
2023-05-06T05:32:00.783Z,29.32
2023-05-06T05:33:00.894Z,29.22
2023-05-06T05:34:00.717Z,29.33
2023-05-06T05:35:00.753Z,29.26
2023-05-06T05:36:00.733Z,29.31
2023-05-06T05:37:00.701Z,29.25
2023-05-06T05:38:00.725Z,29.29
2023-05-06T05:39:00.728Z,29.29
2023-05-06T05:40:00.724Z,29.28
2023-05-06T05:41:00.670Z,29.29
2023-05-06T05:42:00.701Z,29.29
2023-05-06T05:43:00.737Z,29.30
2023-05-06T05:44:00.677Z,29.29
2023-05-06T05:45:00.674Z,29.29
2023-05-06T05:46:00.741Z,29.29
2023-05-06T05:47:00.597Z,29.32
2023-05-06T05:48:00.680Z,29.29
2023-05-06T05:49:00.623Z,29.33
2023-05-06T05:50:00.642Z,29.34
2023-05-06T05:51:00.593Z,29.33
2023-05-06T05:52:00.617Z,29.37
2023-05-06T05:53:00.632Z,29.36
2023-05-06T05:54:00.621Z,29.37
2023-05-06T05:55:00.620Z,29.33
2023-05-06T05:56:00.592Z,29.36
2023-05-06T05:57:00.578Z,29.34
2023-05-06T05:58:00.598Z,29.36
2023-05-06T05:59:00.617Z,29.31
2023-05-06T06:00:00.686Z,29.33
2023-05-06T06:01:00.594Z,29.37
2023-05-06T06:02:00.670Z,29.40
2023-05-06T06:03:00.696Z,29.39
2023-05-06T06:04:00.755Z,29.40
2023-05-06T06:05:00.622Z,29.35
2023-05-06T06:06:00.492Z,29.37
2023-05-06T06:07:00.511Z,29.35
2023-05-06T06:08:02.933Z,29.37
2023-05-06T06:09:00.507Z,29.33
2023-05-06T06:10:00.568Z,29.29
2023-05-06T06:11:00.834Z,29.35
2023-05-06T06:12:00.525Z,29.32
2023-05-06T06:13:00.531Z,29.29
2023-05-06T06:14:00.477Z,29.36
2023-05-06T06:15:00.452Z,29.32
2023-05-06T06:16:00.465Z,29.26
2023-05-06T06:17:00.419Z,29.34
2023-05-06T06:18:00.407Z,29.34
2023-05-06T06:19:00.487Z,29.39
2023-05-06T06:20:00.457Z,29.37
2023-05-06T06:21:00.405Z,29.38
2023-05-06T06:22:00.441Z,29.39
2023-05-06T06:23:00.400Z,29.41
2023-05-06T06:24:00.607Z,29.38
2023-05-06T06:25:00.397Z,29.37
2023-05-06T06:26:00.968Z,29.38
2023-05-06T06:27:00.392Z,29.42
2023-05-06T06:28:00.365Z,29.41
2023-05-06T06:29:00.357Z,29.43
2023-05-06T06:30:00.341Z,29.41
2023-05-06T06:31:00.350Z,29.41
2023-05-06T06:32:00.397Z,29.43
2023-05-06T06:33:00.440Z,29.42
2023-05-06T06:34:00.397Z,29.42
2023-05-06T06:35:00.346Z,29.38
2023-05-06T06:36:00.312Z,29.37
2023-05-06T06:37:00.321Z,29.36
2023-05-06T06:38:00.296Z,29.39
2023-05-06T06:39:00.297Z,29.41
2023-05-06T06:40:00.314Z,29.42
2023-05-06T06:41:00.317Z,29.39
2023-05-06T06:42:00.361Z,29.39
2023-05-06T06:43:00.250Z,29.37
2023-05-06T06:44:00.237Z,29.42
2023-05-06T06:45:00.251Z,29.39
2023-05-06T06:46:00.318Z,29.39
2023-05-06T06:47:00.244Z,29.39
2023-05-06T06:48:00.282Z,29.37
2023-05-06T06:49:00.200Z,29.41
2023-05-06T06:50:00.181Z,29.34
2023-05-06T06:51:00.209Z,29.37
2023-05-06T06:52:00.185Z,29.37
2023-05-06T06:53:00.183Z,29.32
2023-05-06T06:54:00.176Z,29.34
2023-05-06T06:55:00.164Z,29.38
2023-05-06T06:56:00.176Z,29.33
2023-05-06T06:57:00.156Z,29.31
2023-05-06T06:58:00.155Z,29.35
2023-05-06T06:59:00.172Z,29.35
2023-05-06T07:00:00.172Z,29.33
2023-05-06T07:01:00.242Z,29.34
2023-05-06T07:02:00.131Z,29.30
2023-05-06T07:03:00.147Z,29.34
2023-05-06T07:04:00.179Z,29.37
2023-05-06T07:05:00.167Z,29.33
2023-05-06T07:06:00.104Z,29.35
2023-05-06T07:07:00.154Z,29.36
2023-05-06T07:08:00.192Z,29.34
2023-05-06T07:09:00.111Z,29.23
2023-05-06T07:10:00.051Z,29.30
2023-05-06T07:11:00.053Z,29.34
2023-05-06T07:12:00.101Z,29.24
2023-05-06T07:13:00.209Z,29.32
2023-05-06T07:14:00.157Z,29.22
2023-05-06T07:15:00.021Z,29.23
2023-05-06T07:16:00.203Z,29.22
2023-05-06T07:17:00.072Z,29.22
2023-05-06T07:18:00.096Z,29.22
2023-05-06T07:19:00.063Z,29.29
2023-05-06T07:20:00.027Z,29.27
2023-05-06T07:20:59.970Z,29.25
2023-05-06T07:22:00.037Z,29.26
2023-05-06T07:22:59.953Z,29.28
2023-05-06T07:23:59.955Z,29.32
2023-05-06T07:25:00.068Z,29.29
2023-05-06T07:25:59.949Z,29.23
2023-05-06T07:26:59.934Z,29.26
2023-05-06T07:27:59.975Z,29.35
2023-05-06T07:28:59.932Z,29.31
2023-05-06T07:29:59.985Z,29.28
2023-05-06T07:30:59.932Z,29.31
2023-05-06T07:31:59.886Z,29.25
2023-05-06T07:32:59.917Z,29.32
2023-05-06T07:33:59.877Z,29.28
2023-05-06T07:34:59.890Z,29.31
2023-05-06T07:35:59.891Z,29.24
2023-05-06T07:36:59.876Z,29.21
2023-05-06T07:37:59.935Z,29.23
2023-05-06T07:38:59.892Z,29.24
2023-05-06T07:39:59.827Z,29.22
2023-05-06T07:40:59.840Z,29.26
2023-05-06T07:41:59.862Z,29.19
2023-05-06T07:42:59.851Z,29.17
2023-05-06T07:43:59.804Z,29.09
2023-05-06T07:44:59.834Z,29.14
2023-05-06T07:45:59.944Z,29.12
2023-05-06T07:46:59.926Z,29.14
2023-05-06T07:47:59.793Z,29.11
2023-05-06T07:48:59.768Z,29.12
2023-05-06T07:49:59.765Z,29.08
2023-05-06T07:50:59.774Z,29.04
2023-05-06T07:51:59.749Z,29.08
2023-05-06T07:52:59.861Z,29.11
2023-05-06T07:53:59.794Z,29.02
2023-05-06T07:54:59.755Z,28.98
2023-05-06T07:55:59.724Z,29.04
2023-05-06T07:56:59.709Z,28.99
2023-05-06T07:57:59.852Z,29.01
2023-05-06T07:58:59.747Z,29.01
2023-05-06T07:59:59.729Z,29.05
2023-05-06T08:00:59.743Z,29.02
2023-05-06T08:01:59.803Z,29.03
2023-05-06T08:02:59.759Z,29.07
2023-05-06T08:03:59.740Z,29.02
2023-05-06T08:04:59.660Z,29.10
2023-05-06T08:05:59.778Z,29.06
2023-05-06T08:06:59.701Z,29.11
2023-05-06T08:07:59.666Z,29.06
2023-05-06T08:09:53.996Z,29.12
2023-05-06T08:10:54.003Z,29.15
2023-05-06T08:11:54.022Z,29.14
2023-05-06T08:12:54.020Z,29.16
2023-05-06T08:13:53.995Z,29.15
2023-05-06T08:14:54.004Z,29.16
2023-05-06T08:15:54.017Z,29.07
2023-05-06T08:16:54.021Z,29.15
2023-05-06T08:17:54.032Z,29.09
2023-05-06T08:18:53.952Z,29.15
2023-05-06T08:19:54.041Z,29.13
2023-05-06T08:20:53.986Z,29.12
2023-05-06T08:21:53.925Z,29.21
2023-05-06T08:22:53.922Z,29.13
2023-05-06T08:23:53.931Z,29.15
2023-05-06T08:24:53.942Z,29.19
2023-05-06T08:25:53.897Z,29.12
2023-05-06T08:26:53.908Z,29.18
2023-05-06T08:27:53.913Z,29.19
2023-05-06T08:28:53.898Z,29.22
2023-05-06T08:29:54.026Z,29.18
2023-05-06T08:30:53.890Z,29.18
2023-05-06T08:31:53.985Z,29.21
2023-05-06T08:32:53.875Z,29.21
2023-05-06T08:33:54.800Z,29.19
2023-05-06T08:34:53.866Z,29.26
2023-05-06T08:35:53.882Z,29.23
2023-05-06T08:36:53.924Z,29.25
2023-05-06T08:37:53.857Z,29.19
2023-05-06T08:38:54.191Z,29.22
2023-05-06T08:39:53.782Z,29.25
2023-05-06T08:40:53.799Z,29.25
2023-05-06T08:41:53.816Z,29.26
2023-05-06T08:42:53.777Z,29.28
2023-05-06T08:43:53.787Z,29.25
2023-05-06T08:44:53.731Z,29.25
2023-05-06T08:45:53.867Z,29.35
2023-05-06T08:46:53.798Z,29.32
2023-05-06T08:47:53.848Z,29.28
2023-05-06T08:48:53.805Z,29.31
2023-05-06T08:49:53.853Z,29.36
2023-05-06T08:50:53.860Z,29.36
2023-05-06T08:51:54.164Z,29.30
2023-05-06T08:52:54.045Z,29.31
2023-05-06T08:53:54.042Z,29.33
2023-05-06T08:54:54.088Z,29.31
2023-05-06T08:55:54.147Z,29.39
2023-05-06T08:56:54.205Z,29.38
2023-05-06T08:57:54.233Z,29.34
2023-05-06T08:58:54.320Z,29.35
2023-05-06T08:59:54.321Z,29.29
2023-05-06T09:00:54.426Z,29.34
2023-05-06T09:01:54.442Z,29.30
2023-05-06T09:02:54.562Z,29.32
2023-05-06T09:03:54.557Z,29.30
2023-05-06T09:04:54.604Z,29.25
2023-05-06T09:05:54.668Z,29.26
2023-05-06T09:06:55.639Z,29.25
2023-05-06T09:07:54.745Z,29.35
2023-05-06T09:08:54.893Z,29.30
2023-05-06T09:09:54.877Z,29.31
2023-05-06T09:10:54.879Z,29.34
2023-05-06T09:11:54.942Z,29.35
2023-05-06T09:12:55.067Z,29.30
2023-05-06T09:13:55.045Z,29.34
2023-05-06T09:14:55.062Z,29.37
2023-05-06T09:15:55.118Z,29.35
2023-05-06T09:16:55.181Z,29.39
2023-05-06T09:17:55.364Z,29.37
2023-05-06T09:18:55.300Z,29.41
2023-05-06T09:19:55.402Z,29.36
2023-05-06T09:20:55.521Z,29.42
2023-05-06T09:21:55.571Z,29.40
2023-05-06T09:22:55.516Z,29.40
2023-05-06T09:23:55.501Z,29.43
2023-05-06T09:24:55.553Z,29.43
2023-05-06T09:25:55.648Z,29.48
2023-05-06T09:26:55.756Z,29.45
2023-05-06T09:27:55.749Z,29.48
2023-05-06T09:28:55.847Z,29.46
2023-05-06T09:29:55.831Z,29.45
2023-05-06T09:30:55.897Z,29.50
2023-05-06T09:31:55.952Z,29.49
2023-05-06T09:32:55.995Z,29.48
2023-05-06T09:33:56.059Z,29.50
2023-05-06T09:34:56.098Z,29.46
2023-05-06T09:35:56.139Z,29.48
2023-05-06T09:36:56.187Z,29.49
2023-05-06T09:37:56.371Z,29.50
2023-05-06T09:38:56.366Z,29.49
2023-05-06T09:39:56.346Z,29.50
2023-05-06T09:40:56.363Z,29.53
2023-05-06T09:41:56.449Z,29.53
2023-05-06T09:42:56.467Z,29.54
2023-05-06T09:43:56.699Z,29.53
2023-05-06T09:44:57.390Z,29.52
2023-05-06T09:45:56.684Z,29.53
2023-05-06T09:46:56.698Z,29.56
2023-05-06T09:47:56.729Z,29.55
2023-05-06T09:48:56.849Z,29.59
2023-05-06T09:49:56.918Z,29.56
2023-05-06T09:50:58.367Z,29.60
2023-05-06T09:51:56.904Z,29.59
2023-05-06T09:52:56.941Z,29.50
2023-05-06T09:53:56.968Z,29.56
2023-05-06T09:54:56.880Z,29.53
2023-05-06T09:55:56.865Z,29.57
2023-05-06T09:56:57.539Z,29.62
2023-05-06T09:57:56.844Z,29.63
2023-05-06T09:58:56.855Z,29.62
2023-05-06T09:59:56.825Z,29.59
2023-05-06T10:00:56.858Z,29.64
2023-05-06T10:01:56.882Z,29.60
2023-05-06T10:02:56.924Z,29.61
2023-05-06T10:03:56.974Z,29.63
2023-05-06T10:04:57.014Z,29.59
2023-05-06T10:05:56.850Z,29.65
2023-05-06T10:06:56.838Z,29.60
2023-05-06T10:07:56.906Z,29.51
2023-05-06T10:08:56.962Z,29.56
2023-05-06T10:09:57.026Z,29.59
2023-05-06T10:10:57.073Z,29.56
2023-05-06T10:11:57.069Z,29.55
2023-05-06T10:12:57.212Z,29.55
2023-05-06T10:13:57.195Z,29.52
2023-05-06T10:14:57.268Z,29.57
2023-05-06T10:15:57.307Z,29.58
2023-05-06T10:16:57.388Z,29.60
2023-05-06T10:17:57.411Z,29.52
2023-05-06T10:18:57.394Z,29.57
2023-05-06T10:19:57.427Z,29.55
2023-05-06T10:20:57.517Z,29.54
2023-05-06T10:21:57.543Z,29.51
2023-05-06T10:22:57.625Z,29.53
2023-05-06T10:23:57.667Z,29.54
2023-05-06T10:24:57.668Z,29.53
2023-05-06T10:25:57.786Z,29.55
2023-05-06T10:26:57.761Z,29.55
2023-05-06T10:27:57.834Z,29.54
2023-05-06T10:28:57.877Z,29.49
2023-05-06T10:29:57.924Z,29.54
2023-05-06T10:30:57.931Z,29.54
2023-05-06T10:31:58.121Z,29.56
2023-05-06T10:32:58.047Z,29.59
2023-05-06T10:33:58.032Z,29.53
2023-05-06T10:34:58.111Z,29.49
2023-05-06T10:35:58.162Z,29.49
2023-05-06T10:36:58.233Z,29.56
2023-05-06T10:37:58.195Z,29.55
2023-05-06T10:38:58.272Z,29.50
2023-05-06T10:39:58.346Z,29.45
2023-05-06T10:40:58.365Z,29.50
2023-05-06T10:41:58.493Z,29.56
2023-05-06T10:42:58.479Z,29.52
2023-05-06T10:43:58.490Z,29.52
2023-05-06T10:44:58.532Z,29.53
2023-05-06T10:45:58.615Z,29.52
2023-05-06T10:46:58.604Z,29.58
2023-05-06T10:47:58.623Z,29.58
2023-05-06T10:48:58.653Z,29.53
2023-05-06T10:49:58.680Z,29.55
2023-05-06T10:50:58.735Z,29.55
2023-05-06T10:51:58.780Z,29.59
2023-05-06T10:52:58.865Z,29.55
2023-05-06T10:53:58.861Z,29.52
2023-05-06T10:54:58.860Z,29.55
2023-05-06T10:55:58.905Z,29.62
2023-05-06T10:56:59.007Z,29.55
2023-05-06T10:57:59.028Z,29.53
2023-05-06T10:58:58.982Z,29.55
2023-05-06T10:59:59.093Z,29.52
2023-05-06T11:00:59.096Z,29.58
2023-05-06T11:01:59.129Z,29.56
2023-05-06T11:02:59.242Z,29.55
2023-05-06T11:03:59.229Z,29.45
2023-05-06T11:04:59.240Z,29.51
2023-05-06T11:05:59.239Z,29.50
2023-05-06T11:06:59.289Z,29.51
2023-05-06T11:07:59.301Z,29.45
2023-05-06T11:08:59.408Z,29.50
2023-05-06T11:09:59.727Z,29.47
2023-05-06T11:10:59.427Z,29.41
2023-05-06T11:11:59.456Z,29.43
2023-05-06T11:12:59.554Z,29.50
2023-05-06T11:13:59.623Z,29.44
2023-05-06T11:14:59.548Z,29.48
2023-05-06T11:15:59.625Z,29.44
2023-05-06T11:16:59.759Z,29.41
2023-05-06T11:17:59.740Z,29.41
2023-05-06T11:18:59.701Z,29.44
2023-05-06T11:19:59.720Z,29.40
2023-05-06T11:20:59.760Z,29.40
2023-05-06T11:21:59.766Z,29.40
2023-05-06T11:22:59.813Z,29.33
2023-05-06T11:23:59.816Z,29.37
2023-05-06T11:24:59.854Z,29.40
2023-05-06T11:25:59.951Z,29.38
2023-05-06T11:26:59.955Z,29.42
2023-05-06T11:27:59.956Z,29.38
2023-05-06T11:28:59.968Z,29.39
2023-05-06T11:30:00.162Z,29.38
2023-05-06T11:31:00.063Z,29.42
2023-05-06T11:32:00.104Z,29.40
2023-05-06T11:33:00.164Z,29.36
2023-05-06T11:34:00.112Z,29.39
2023-05-06T11:35:00.123Z,29.39
2023-05-06T11:36:00.191Z,29.36
2023-05-06T11:37:00.226Z,29.42
2023-05-06T11:38:00.251Z,29.36
2023-05-06T11:39:00.279Z,29.36
2023-05-06T11:40:00.343Z,29.42
2023-05-06T11:41:01.267Z,29.41
2023-05-06T11:42:00.353Z,29.41
2023-05-06T11:43:00.363Z,29.38
2023-05-06T11:44:00.428Z,29.38
2023-05-06T11:45:00.470Z,29.36
2023-05-06T11:46:00.508Z,29.41
2023-05-06T11:47:00.495Z,29.39
2023-05-06T11:48:00.577Z,29.39
2023-05-06T11:49:00.577Z,29.35
2023-05-06T11:50:00.575Z,29.35
2023-05-06T11:51:00.603Z,29.35
2023-05-06T11:52:00.694Z,29.33
2023-05-06T11:53:00.691Z,29.34
2023-05-06T11:54:00.696Z,29.34
2023-05-06T11:55:00.795Z,29.33
2023-05-06T11:56:00.745Z,29.34
2023-05-06T11:57:00.822Z,29.36
2023-05-06T11:58:00.827Z,29.38
2023-05-06T11:59:00.833Z,29.34
2023-05-06T12:00:00.889Z,29.34
2023-05-06T12:01:00.927Z,29.28
2023-05-06T12:02:01.023Z,29.28
2023-05-06T12:03:01.012Z,29.32
2023-05-06T12:04:01.121Z,29.29
2023-05-06T12:05:01.092Z,29.33
2023-05-06T12:06:01.086Z,29.30
2023-05-06T12:07:01.100Z,29.29
2023-05-06T12:08:01.151Z,29.36
2023-05-06T12:09:01.143Z,29.29
2023-05-06T12:10:01.240Z,29.26
2023-05-06T12:11:01.224Z,29.28
2023-05-06T12:12:01.278Z,29.32
2023-05-06T12:13:01.340Z,29.28
2023-05-06T12:14:01.353Z,29.31
2023-05-06T12:15:01.383Z,29.29
2023-05-06T12:16:01.518Z,29.34
2023-05-06T12:17:01.409Z,29.31
2023-05-06T12:18:01.751Z,29.31
2023-05-06T12:19:01.485Z,29.28
2023-05-06T12:20:01.494Z,29.28
2023-05-06T12:21:01.526Z,29.34
2023-05-06T12:22:01.558Z,29.36
2023-05-06T12:23:01.624Z,29.34
2023-05-06T12:24:01.652Z,29.34
2023-05-06T12:25:01.679Z,29.32
2023-05-06T12:26:01.716Z,29.33
2023-05-06T12:27:01.748Z,29.33
2023-05-06T12:28:01.802Z,29.30
2023-05-06T12:29:01.792Z,29.30
2023-05-06T12:30:01.876Z,29.30
2023-05-06T12:31:01.922Z,29.32
2023-05-06T12:32:01.987Z,29.30
2023-05-06T12:33:02.144Z,29.32
2023-05-06T12:34:01.997Z,29.34
2023-05-06T12:35:02.017Z,29.32
2023-05-06T12:36:02.012Z,29.29
2023-05-06T12:37:02.066Z,29.28
2023-05-06T12:38:02.103Z,29.32
2023-05-06T12:39:02.145Z,29.28
2023-05-06T12:40:02.195Z,29.30
2023-05-06T12:41:02.195Z,29.29
2023-05-06T12:42:02.192Z,29.31
2023-05-06T12:43:02.264Z,29.30
2023-05-06T12:44:02.304Z,29.22
2023-05-06T12:45:02.323Z,29.28
2023-05-06T12:46:02.325Z,29.28
2023-05-06T12:47:02.361Z,29.25
2023-05-06T12:48:02.473Z,29.26
2023-05-06T12:49:02.409Z,29.26
2023-05-06T12:50:02.593Z,29.32
2023-05-06T12:51:02.463Z,29.31
2023-05-06T12:52:02.548Z,29.28
2023-05-06T12:53:02.550Z,29.25
2023-05-06T12:54:02.594Z,29.23